sensor_id;sensor_type;location;lat;lon;timestamp;P1;durP1;ratioP1;P2;durP2;ratioP2
10529;SDS011;5313;48.834;9.228;2022-09-21T00:01:12;9.20;;;6.50;;
10529;SDS011;5313;48.834;9.228;2022-09-21T00:03:37;11.60;;;6.13;;
10529;SDS011;5313;48.834;9.228;2022-09-21T00:06:06;10.43;;;6.27;;
10529;SDS011;5313;48.834;9.228;2022-09-21T00:08:33;8.17;;;6.03;;
10529;SDS011;5313;48.834;9.228;2022-09-21T00:10:59;10.90;;;6.23;;
10529;SDS011;5313;48.834;9.228;2022-09-21T00:13:25;7.40;;;5.90;;
10529;SDS011;5313;48.834;9.228;2022-09-21T00:15:52;9.63;;;5.63;;
10529;SDS011;5313;48.834;9.228;2022-09-21T00:18:21;9.83;;;6.17;;
10529;SDS011;5313;48.834;9.228;2022-09-21T00:20:46;8.67;;;6.20;;
10529;SDS011;5313;48.834;9.228;2022-09-21T00:23:13;8.97;;;6.23;;
10529;SDS011;5313;48.834;9.228;2022-09-21T00:25:38;7.47;;;5.47;;
10529;SDS011;5313;48.834;9.228;2022-09-21T00:28:04;11.63;;;6.57;;
10529;SDS011;5313;48.834;9.228;2022-09-21T00:30:29;10.07;;;6.43;;
10529;SDS011;5313;48.834;9.228;2022-09-21T00:32:55;9.37;;;6.23;;
10529;SDS011;5313;48.834;9.228;2022-09-21T00:35:21;10.77;;;6.90;;
10529;SDS011;5313;48.834;9.228;2022-09-21T00:37:46;9.47;;;6.40;;
10529;SDS011;5313;48.834;9.228;2022-09-21T00:40:12;11.50;;;5.87;;
10529;SDS011;5313;48.834;9.228;2022-09-21T00:42:38;14.33;;;6.43;;
10529;SDS011;5313;48.834;9.228;2022-09-21T00:45:04;11.07;;;5.93;;
10529;SDS011;5313;48.834;9.228;2022-09-21T00:50:04;9.73;;;6.40;;
10529;SDS011;5313;48.834;9.228;2022-09-21T00:52:33;11.13;;;6.33;;
10529;SDS011;5313;48.834;9.228;2022-09-21T00:55:07;9.13;;;6.43;;
10529;SDS011;5313;48.834;9.228;2022-09-21T00:57:38;8.57;;;5.93;;
10529;SDS011;5313;48.834;9.228;2022-09-21T01:00:06;9.83;;;6.00;;
10529;SDS011;5313;48.834;9.228;2022-09-21T01:02:34;13.70;;;6.07;;
10529;SDS011;5313;48.834;9.228;2022-09-21T01:05:02;8.10;;;5.93;;
10529;SDS011;5313;48.834;9.228;2022-09-21T01:07:29;11.37;;;6.50;;
10529;SDS011;5313;48.834;9.228;2022-09-21T01:09:58;9.10;;;6.20;;
10529;SDS011;5313;48.834;9.228;2022-09-21T01:12:32;8.67;;;5.80;;
10529;SDS011;5313;48.834;9.228;2022-09-21T01:18:00;10.00;;;5.70;;
10529;SDS011;5313;48.834;9.228;2022-09-21T01:26:13;8.90;;;5.43;;
10529;SDS011;5313;48.834;9.228;2022-09-21T01:31:21;9.43;;;5.17;;
10529;SDS011;5313;48.834;9.228;2022-09-21T01:33:51;8.23;;;5.67;;
10529;SDS011;5313;48.834;9.228;2022-09-21T01:36:23;8.93;;;5.63;;
10529;SDS011;5313;48.834;9.228;2022-09-21T01:38:53;9.10;;;6.10;;
10529;SDS011;5313;48.834;9.228;2022-09-21T01:41:24;9.67;;;5.13;;
10529;SDS011;5313;48.834;9.228;2022-09-21T01:43:54;10.47;;;5.67;;
10529;SDS011;5313;48.834;9.228;2022-09-21T01:46:24;6.57;;;5.23;;
10529;SDS011;5313;48.834;9.228;2022-09-21T01:48:54;9.23;;;5.73;;
10529;SDS011;5313;48.834;9.228;2022-09-21T01:51:24;8.37;;;5.57;;
10529;SDS011;5313;48.834;9.228;2022-09-21T01:53:53;6.03;;;5.17;;
10529;SDS011;5313;48.834;9.228;2022-09-21T01:56:26;7.33;;;5.33;;
10529;SDS011;5313;48.834;9.228;2022-09-21T01:59:07;8.40;;;5.60;;
10529;SDS011;5313;48.834;9.228;2022-09-21T02:01:42;10.70;;;6.20;;
10529;SDS011;5313;48.834;9.228;2022-09-21T02:04:11;7.57;;;5.27;;
10529;SDS011;5313;48.834;9.228;2022-09-21T02:06:39;8.57;;;5.40;;
10529;SDS011;5313;48.834;9.228;2022-09-21T02:09:06;12.70;;;5.47;;
10529;SDS011;5313;48.834;9.228;2022-09-21T02:11:32;8.33;;;5.43;;
10529;SDS011;5313;48.834;9.228;2022-09-21T02:13:58;9.37;;;6.50;;
10529;SDS011;5313;48.834;9.228;2022-09-21T02:19:11;8.60;;;5.30;;
10529;SDS011;5313;48.834;9.228;2022-09-21T02:22:01;7.83;;;5.17;;
10529;SDS011;5313;48.834;9.228;2022-09-21T02:29:44;13.17;;;6.20;;
10529;SDS011;5313;48.834;9.228;2022-09-21T02:32:29;10.37;;;5.23;;
10529;SDS011;5313;48.834;9.228;2022-09-21T02:35:05;6.90;;;4.90;;
10529;SDS011;5313;48.834;9.228;2022-09-21T02:40:39;9.00;;;5.10;;
10529;SDS011;5313;48.834;9.228;2022-09-21T02:43:17;10.87;;;5.47;;
10529;SDS011;5313;48.834;9.228;2022-09-21T02:45:49;8.07;;;5.37;;
10529;SDS011;5313;48.834;9.228;2022-09-21T02:48:20;8.87;;;5.23;;
10529;SDS011;5313;48.834;9.228;2022-09-21T02:50:53;6.83;;;5.33;;
10529;SDS011;5313;48.834;9.228;2022-09-21T02:53:25;7.90;;;5.03;;
10529;SDS011;5313;48.834;9.228;2022-09-21T02:55:54;9.17;;;5.83;;
10529;SDS011;5313;48.834;9.228;2022-09-21T02:58:22;10.40;;;5.30;;
10529;SDS011;5313;48.834;9.228;2022-09-21T03:00:50;13.63;;;6.67;;
10529;SDS011;5313;48.834;9.228;2022-09-21T03:03:17;10.50;;;6.50;;
10529;SDS011;5313;48.834;9.228;2022-09-21T03:05:45;6.37;;;4.40;;
10529;SDS011;5313;48.834;9.228;2022-09-21T03:08:13;9.30;;;5.23;;
10529;SDS011;5313;48.834;9.228;2022-09-21T03:10:40;7.13;;;5.63;;
10529;SDS011;5313;48.834;9.228;2022-09-21T03:13:06;9.50;;;5.13;;
10529;SDS011;5313;48.834;9.228;2022-09-21T03:15:33;8.43;;;5.70;;
10529;SDS011;5313;48.834;9.228;2022-09-21T03:18:00;7.80;;;5.83;;
10529;SDS011;5313;48.834;9.228;2022-09-21T03:20:26;6.17;;;4.80;;
10529;SDS011;5313;48.834;9.228;2022-09-21T03:22:52;7.93;;;5.70;;
10529;SDS011;5313;48.834;9.228;2022-09-21T03:25:17;8.97;;;4.90;;
10529;SDS011;5313;48.834;9.228;2022-09-21T03:27:42;7.53;;;5.10;;
10529;SDS011;5313;48.834;9.228;2022-09-21T03:30:09;10.47;;;5.53;;
10529;SDS011;5313;48.834;9.228;2022-09-21T03:32:34;8.73;;;5.40;;
10529;SDS011;5313;48.834;9.228;2022-09-21T03:35:00;7.67;;;5.30;;
10529;SDS011;5313;48.834;9.228;2022-09-21T03:37:25;7.93;;;5.27;;
10529;SDS011;5313;48.834;9.228;2022-09-21T03:39:51;8.83;;;5.60;;
10529;SDS011;5313;48.834;9.228;2022-09-21T03:42:16;9.53;;;5.50;;
10529;SDS011;5313;48.834;9.228;2022-09-21T03:44:42;9.80;;;5.53;;
10529;SDS011;5313;48.834;9.228;2022-09-21T03:47:08;9.97;;;5.63;;
10529;SDS011;5313;48.834;9.228;2022-09-21T03:49:33;10.87;;;6.23;;
10529;SDS011;5313;48.834;9.228;2022-09-21T03:51:59;10.43;;;5.83;;
10529;SDS011;5313;48.834;9.228;2022-09-21T03:54:25;11.60;;;6.30;;
10529;SDS011;5313;48.834;9.228;2022-09-21T03:56:50;7.80;;;5.60;;
10529;SDS011;5313;48.834;9.228;2022-09-21T03:59:16;8.13;;;5.77;;
10529;SDS011;5313;48.834;9.228;2022-09-21T04:01:42;7.50;;;5.13;;
10529;SDS011;5313;48.834;9.228;2022-09-21T04:04:07;7.73;;;5.20;;
10529;SDS011;5313;48.834;9.228;2022-09-21T04:06:34;9.40;;;5.60;;
10529;SDS011;5313;48.834;9.228;2022-09-21T04:08:59;7.00;;;5.40;;
10529;SDS011;5313;48.834;9.228;2022-09-21T04:11:26;7.83;;;4.87;;
10529;SDS011;5313;48.834;9.228;2022-09-21T04:13:53;8.03;;;5.20;;
10529;SDS011;5313;48.834;9.228;2022-09-21T04:16:21;9.60;;;5.77;;
10529;SDS011;5313;48.834;9.228;2022-09-21T04:18:48;10.47;;;5.77;;
10529;SDS011;5313;48.834;9.228;2022-09-21T04:21:14;14.00;;;5.27;;
10529;SDS011;5313;48.834;9.228;2022-09-21T04:23:41;9.53;;;4.77;;
10529;SDS011;5313;48.834;9.228;2022-09-21T04:26:16;11.10;;;5.40;;
10529;SDS011;5313;48.834;9.228;2022-09-21T04:28:53;7.97;;;5.63;;
10529;SDS011;5313;48.834;9.228;2022-09-21T04:31:20;10.47;;;5.30;;
10529;SDS011;5313;48.834;9.228;2022-09-21T04:33:47;6.67;;;4.83;;
10529;SDS011;5313;48.834;9.228;2022-09-21T04:36:14;8.30;;;5.80;;
10529;SDS011;5313;48.834;9.228;2022-09-21T04:38:40;7.80;;;5.27;;
10529;SDS011;5313;48.834;9.228;2022-09-21T04:41:05;8.57;;;5.60;;
10529;SDS011;5313;48.834;9.228;2022-09-21T04:43:31;6.27;;;4.87;;
10529;SDS011;5313;48.834;9.228;2022-09-21T04:45:56;11.63;;;5.30;;
10529;SDS011;5313;48.834;9.228;2022-09-21T04:48:22;8.43;;;5.80;;
10529;SDS011;5313;48.834;9.228;2022-09-21T04:50:48;9.07;;;5.87;;
10529;SDS011;5313;48.834;9.228;2022-09-21T04:53:14;9.33;;;6.60;;
10529;SDS011;5313;48.834;9.228;2022-09-21T04:55:40;8.63;;;6.43;;
10529;SDS011;5313;48.834;9.228;2022-09-21T04:58:06;9.63;;;5.83;;
10529;SDS011;5313;48.834;9.228;2022-09-21T05:00:31;10.90;;;6.73;;
10529;SDS011;5313;48.834;9.228;2022-09-21T05:02:57;10.20;;;7.33;;
10529;SDS011;5313;48.834;9.228;2022-09-21T05:05:23;9.50;;;6.67;;
10529;SDS011;5313;48.834;9.228;2022-09-21T05:07:48;11.83;;;6.93;;
10529;SDS011;5313;48.834;9.228;2022-09-21T05:10:14;9.67;;;6.77;;
10529;SDS011;5313;48.834;9.228;2022-09-21T05:12:40;9.23;;;5.80;;
10529;SDS011;5313;48.834;9.228;2022-09-21T05:15:07;6.93;;;4.93;;
10529;SDS011;5313;48.834;9.228;2022-09-21T05:17:35;8.40;;;5.50;;
10529;SDS011;5313;48.834;9.228;2022-09-21T05:20:01;9.17;;;5.63;;
10529;SDS011;5313;48.834;9.228;2022-09-21T05:22:27;8.40;;;5.73;;
10529;SDS011;5313;48.834;9.228;2022-09-21T05:24:52;7.43;;;5.70;;
10529;SDS011;5313;48.834;9.228;2022-09-21T05:27:18;10.73;;;5.83;;
10529;SDS011;5313;48.834;9.228;2022-09-21T05:29:44;9.87;;;5.43;;
10529;SDS011;5313;48.834;9.228;2022-09-21T05:35:16;8.57;;;5.90;;
10529;SDS011;5313;48.834;9.228;2022-09-21T05:38:15;8.43;;;5.23;;
10529;SDS011;5313;48.834;9.228;2022-09-21T05:40:43;8.13;;;6.20;;
10529;SDS011;5313;48.834;9.228;2022-09-21T05:43:11;7.73;;;5.57;;
10529;SDS011;5313;48.834;9.228;2022-09-21T05:45:38;6.80;;;5.23;;
10529;SDS011;5313;48.834;9.228;2022-09-21T05:48:17;8.67;;;5.70;;
10529;SDS011;5313;48.834;9.228;2022-09-21T05:50:55;10.83;;;5.90;;
10529;SDS011;5313;48.834;9.228;2022-09-21T06:04:36;9.20;;;5.53;;
10529;SDS011;5313;48.834;9.228;2022-09-21T06:07:02;8.70;;;5.73;;
10529;SDS011;5313;48.834;9.228;2022-09-21T06:09:27;9.07;;;5.77;;
10529;SDS011;5313;48.834;9.228;2022-09-21T06:11:53;8.87;;;5.67;;
10529;SDS011;5313;48.834;9.228;2022-09-21T06:14:18;8.20;;;5.17;;
10529;SDS011;5313;48.834;9.228;2022-09-21T06:16:48;9.33;;;5.50;;
10529;SDS011;5313;48.834;9.228;2022-09-21T06:19:14;8.43;;;5.33;;
10529;SDS011;5313;48.834;9.228;2022-09-21T06:21:40;6.73;;;4.97;;
10529;SDS011;5313;48.834;9.228;2022-09-21T06:24:06;9.37;;;5.53;;
10529;SDS011;5313;48.834;9.228;2022-09-21T06:26:32;7.07;;;5.50;;
10529;SDS011;5313;48.834;9.228;2022-09-21T06:28:58;8.83;;;6.03;;
10529;SDS011;5313;48.834;9.228;2022-09-21T06:31:25;8.90;;;5.53;;
10529;SDS011;5313;48.834;9.228;2022-09-21T06:33:51;9.13;;;5.57;;
10529;SDS011;5313;48.834;9.228;2022-09-21T06:36:16;7.47;;;5.90;;
10529;SDS011;5313;48.834;9.228;2022-09-21T06:38:42;6.87;;;5.40;;
10529;SDS011;5313;48.834;9.228;2022-09-21T06:41:07;7.53;;;5.63;;
10529;SDS011;5313;48.834;9.228;2022-09-21T06:43:33;7.60;;;5.60;;
10529;SDS011;5313;48.834;9.228;2022-09-21T06:45:59;9.10;;;5.77;;
10529;SDS011;5313;48.834;9.228;2022-09-21T06:48:26;8.47;;;5.83;;
10529;SDS011;5313;48.834;9.228;2022-09-21T06:50:56;7.07;;;5.67;;
10529;SDS011;5313;48.834;9.228;2022-09-21T06:53:23;8.27;;;5.67;;
10529;SDS011;5313;48.834;9.228;2022-09-21T06:55:49;9.40;;;6.10;;
10529;SDS011;5313;48.834;9.228;2022-09-21T06:58:14;9.00;;;6.80;;
10529;SDS011;5313;48.834;9.228;2022-09-21T07:00:40;9.80;;;7.57;;
10529;SDS011;5313;48.834;9.228;2022-09-21T07:03:05;10.43;;;7.83;;
10529;SDS011;5313;48.834;9.228;2022-09-21T07:05:36;12.43;;;6.77;;
10529;SDS011;5313;48.834;9.228;2022-09-21T07:08:02;13.60;;;6.53;;
10529;SDS011;5313;48.834;9.228;2022-09-21T07:10:27;11.27;;;6.67;;
10529;SDS011;5313;48.834;9.228;2022-09-21T07:12:53;9.27;;;6.60;;
10529;SDS011;5313;48.834;9.228;2022-09-21T07:15:18;10.10;;;7.33;;
10529;SDS011;5313;48.834;9.228;2022-09-21T07:17:45;11.33;;;6.83;;
10529;SDS011;5313;48.834;9.228;2022-09-21T07:20:11;10.37;;;7.63;;
10529;SDS011;5313;48.834;9.228;2022-09-21T07:22:36;9.90;;;7.50;;
10529;SDS011;5313;48.834;9.228;2022-09-21T07:25:04;11.23;;;7.63;;
10529;SDS011;5313;48.834;9.228;2022-09-21T07:27:31;15.87;;;7.10;;
10529;SDS011;5313;48.834;9.228;2022-09-21T07:29:57;11.23;;;7.23;;
10529;SDS011;5313;48.834;9.228;2022-09-21T07:32:22;12.30;;;7.10;;
10529;SDS011;5313;48.834;9.228;2022-09-21T07:34:49;10.33;;;6.87;;
10529;SDS011;5313;48.834;9.228;2022-09-21T07:37:15;11.73;;;6.73;;
10529;SDS011;5313;48.834;9.228;2022-09-21T07:39:41;12.17;;;7.07;;
10529;SDS011;5313;48.834;9.228;2022-09-21T07:42:06;11.33;;;7.17;;
10529;SDS011;5313;48.834;9.228;2022-09-21T07:44:32;11.40;;;7.10;;
10529;SDS011;5313;48.834;9.228;2022-09-21T07:46:58;10.23;;;7.20;;
10529;SDS011;5313;48.834;9.228;2022-09-21T07:49:24;8.87;;;6.93;;
10529;SDS011;5313;48.834;9.228;2022-09-21T07:51:50;15.47;;;9.13;;
10529;SDS011;5313;48.834;9.228;2022-09-21T07:54:15;14.23;;;8.00;;
10529;SDS011;5313;48.834;9.228;2022-09-21T07:56:41;11.13;;;8.20;;
10529;SDS011;5313;48.834;9.228;2022-09-21T07:59:26;11.53;;;7.07;;
10529;SDS011;5313;48.834;9.228;2022-09-21T08:01:53;11.60;;;7.43;;
10529;SDS011;5313;48.834;9.228;2022-09-21T08:04:18;11.10;;;6.97;;
10529;SDS011;5313;48.834;9.228;2022-09-21T08:06:44;10.33;;;7.23;;
10529;SDS011;5313;48.834;9.228;2022-09-21T08:09:09;11.40;;;7.40;;
10529;SDS011;5313;48.834;9.228;2022-09-21T08:11:35;13.90;;;7.00;;
10529;SDS011;5313;48.834;9.228;2022-09-21T08:14:02;9.23;;;6.63;;
10529;SDS011;5313;48.834;9.228;2022-09-21T08:16:28;8.23;;;5.57;;
10529;SDS011;5313;48.834;9.228;2022-09-21T08:18:55;11.63;;;5.93;;
10529;SDS011;5313;48.834;9.228;2022-09-21T08:21:21;7.53;;;5.43;;
10529;SDS011;5313;48.834;9.228;2022-09-21T08:23:47;7.40;;;5.30;;
10529;SDS011;5313;48.834;9.228;2022-09-21T08:26:13;9.57;;;5.00;;
10529;SDS011;5313;48.834;9.228;2022-09-21T08:28:46;11.37;;;5.73;;
10529;SDS011;5313;48.834;9.228;2022-09-21T08:31:14;8.17;;;5.03;;
10529;SDS011;5313;48.834;9.228;2022-09-21T08:33:42;7.07;;;4.30;;
10529;SDS011;5313;48.834;9.228;2022-09-21T08:36:08;10.53;;;5.23;;
10529;SDS011;5313;48.834;9.228;2022-09-21T08:38:34;9.83;;;5.57;;
10529;SDS011;5313;48.834;9.228;2022-09-21T08:41:02;10.23;;;5.60;;
10529;SDS011;5313;48.834;9.228;2022-09-21T08:43:42;7.17;;;4.80;;
10529;SDS011;5313;48.834;9.228;2022-09-21T08:46:12;7.23;;;4.43;;
10529;SDS011;5313;48.834;9.228;2022-09-21T08:48:44;5.70;;;4.23;;
10529;SDS011;5313;48.834;9.228;2022-09-21T08:51:15;7.80;;;4.30;;
10529;SDS011;5313;48.834;9.228;2022-09-21T08:53:47;8.30;;;4.13;;
10529;SDS011;5313;48.834;9.228;2022-09-21T08:56:15;7.50;;;3.97;;
10529;SDS011;5313;48.834;9.228;2022-09-21T08:58:40;4.80;;;3.70;;
10529;SDS011;5313;48.834;9.228;2022-09-21T09:18:03;4.30;;;3.37;;
10529;SDS011;5313;48.834;9.228;2022-09-21T09:20:42;4.73;;;3.37;;
10529;SDS011;5313;48.834;9.228;2022-09-21T09:23:12;3.50;;;3.20;;
10529;SDS011;5313;48.834;9.228;2022-09-21T09:25:50;5.20;;;3.13;;
10529;SDS011;5313;48.834;9.228;2022-09-21T09:28:22;3.63;;;2.47;;
10529;SDS011;5313;48.834;9.228;2022-09-21T09:31:05;3.50;;;2.50;;
10529;SDS011;5313;48.834;9.228;2022-09-21T09:33:47;3.53;;;2.30;;
10529;SDS011;5313;48.834;9.228;2022-09-21T09:36:37;4.10;;;2.33;;
10529;SDS011;5313;48.834;9.228;2022-09-21T09:39:11;4.43;;;2.77;;
10529;SDS011;5313;48.834;9.228;2022-09-21T09:41:45;4.50;;;2.43;;
10529;SDS011;5313;48.834;9.228;2022-09-21T09:50:11;5.93;;;2.63;;
10529;SDS011;5313;48.834;9.228;2022-09-21T09:52:52;5.23;;;2.57;;
10529;SDS011;5313;48.834;9.228;2022-09-21T09:55:25;7.20;;;3.50;;
10529;SDS011;5313;48.834;9.228;2022-09-21T09:57:54;10.23;;;4.63;;
10529;SDS011;5313;48.834;9.228;2022-09-21T10:00:20;5.60;;;2.73;;
10529;SDS011;5313;48.834;9.228;2022-09-21T10:02:47;3.87;;;3.00;;
10529;SDS011;5313;48.834;9.228;2022-09-21T10:07:52;4.70;;;3.20;;
10529;SDS011;5313;48.834;9.228;2022-09-21T10:13:02;5.17;;;2.57;;
10529;SDS011;5313;48.834;9.228;2022-09-21T10:15:42;3.27;;;2.57;;
10529;SDS011;5313;48.834;9.228;2022-09-21T10:18:17;5.73;;;2.73;;
10529;SDS011;5313;48.834;9.228;2022-09-21T10:20:54;5.57;;;2.80;;
10529;SDS011;5313;48.834;9.228;2022-09-21T10:23:24;4.33;;;3.00;;
10529;SDS011;5313;48.834;9.228;2022-09-21T10:25:55;4.83;;;2.80;;
10529;SDS011;5313;48.834;9.228;2022-09-21T10:28:31;4.37;;;2.80;;
10529;SDS011;5313;48.834;9.228;2022-09-21T10:31:06;4.57;;;2.40;;
10529;SDS011;5313;48.834;9.228;2022-09-21T10:33:32;5.67;;;2.73;;
10529;SDS011;5313;48.834;9.228;2022-09-21T10:36:07;3.17;;;2.20;;
10529;SDS011;5313;48.834;9.228;2022-09-21T10:38:49;3.73;;;1.80;;
10529;SDS011;5313;48.834;9.228;2022-09-21T10:41:16;5.17;;;2.00;;
10529;SDS011;5313;48.834;9.228;2022-09-21T10:43:41;1.60;;;1.20;;
10529;SDS011;5313;48.834;9.228;2022-09-21T10:46:08;2.97;;;1.50;;
10529;SDS011;5313;48.834;9.228;2022-09-21T10:48:34;2.13;;;1.40;;
10529;SDS011;5313;48.834;9.228;2022-09-21T10:51:01;4.67;;;1.80;;
10529;SDS011;5313;48.834;9.228;2022-09-21T10:53:31;2.23;;;1.53;;
10529;SDS011;5313;48.834;9.228;2022-09-21T10:58:25;3.80;;;1.40;;
10529;SDS011;5313;48.834;9.228;2022-09-21T11:00:51;2.40;;;1.90;;
10529;SDS011;5313;48.834;9.228;2022-09-21T11:06:19;1.13;;;1.03;;
10529;SDS011;5313;48.834;9.228;2022-09-21T11:08:51;1.67;;;1.03;;
10529;SDS011;5313;48.834;9.228;2022-09-21T11:12:05;2.73;;;0.90;;
10529;SDS011;5313;48.834;9.228;2022-09-21T11:14:44;1.20;;;0.93;;
10529;SDS011;5313;48.834;9.228;2022-09-21T11:17:34;3.83;;;1.10;;
10529;SDS011;5313;48.834;9.228;2022-09-21T11:23:04;2.90;;;1.00;;
10529;SDS011;5313;48.834;9.228;2022-09-21T11:28:38;2.13;;;0.90;;
10529;SDS011;5313;48.834;9.228;2022-09-21T11:34:36;1.73;;;0.73;;
10529;SDS011;5313;48.834;9.228;2022-09-21T11:51:08;1.40;;;0.60;;
10529;SDS011;5313;48.834;9.228;2022-09-21T11:54:11;1.77;;;0.40;;
10529;SDS011;5313;48.834;9.228;2022-09-21T11:56:49;1.83;;;0.70;;
10529;SDS011;5313;48.834;9.228;2022-09-21T12:14:16;0.87;;;0.60;;
10529;SDS011;5313;48.834;9.228;2022-09-21T12:19:50;1.83;;;0.70;;
10529;SDS011;5313;48.834;9.228;2022-09-21T12:22:37;0.50;;;0.50;;
10529;SDS011;5313;48.834;9.228;2022-09-21T12:27:42;1.73;;;0.80;;
10529;SDS011;5313;48.834;9.228;2022-09-21T12:30:20;1.10;;;0.70;;
10529;SDS011;5313;48.834;9.228;2022-09-21T12:35:16;1.90;;;0.60;;
10529;SDS011;5313;48.834;9.228;2022-09-21T12:37:53;1.50;;;0.70;;
10529;SDS011;5313;48.834;9.228;2022-09-21T12:43:20;1.27;;;0.60;;
10529;SDS011;5313;48.834;9.228;2022-09-21T12:45:56;1.80;;;0.53;;
10529;SDS011;5313;48.834;9.228;2022-09-21T12:48:31;0.60;;;0.50;;
10529;SDS011;5313;48.834;9.228;2022-09-21T12:51:18;0.90;;;0.60;;
10529;SDS011;5313;48.834;9.228;2022-09-21T12:53:49;1.30;;;0.80;;
10529;SDS011;5313;48.834;9.228;2022-09-21T12:56:20;0.40;;;0.40;;
10529;SDS011;5313;48.834;9.228;2022-09-21T12:59:01;1.00;;;0.60;;
10529;SDS011;5313;48.834;9.228;2022-09-21T13:04:47;0.73;;;0.53;;
10529;SDS011;5313;48.834;9.228;2022-09-21T13:07:19;1.67;;;0.80;;
10529;SDS011;5313;48.834;9.228;2022-09-21T13:10:29;1.93;;;0.80;;
10529;SDS011;5313;48.834;9.228;2022-09-21T13:13:03;1.57;;;0.97;;
10529;SDS011;5313;48.834;9.228;2022-09-21T13:15:40;1.70;;;0.70;;
10529;SDS011;5313;48.834;9.228;2022-09-21T13:20:52;2.33;;;0.90;;
10529;SDS011;5313;48.834;9.228;2022-09-21T13:23:40;1.60;;;0.80;;
10529;SDS011;5313;48.834;9.228;2022-09-21T13:26:10;2.53;;;0.80;;
10529;SDS011;5313;48.834;9.228;2022-09-21T13:36:39;1.10;;;0.70;;
10529;SDS011;5313;48.834;9.228;2022-09-21T13:41:32;0.90;;;0.70;;
10529;SDS011;5313;48.834;9.228;2022-09-21T13:51:32;0.80;;;0.60;;
10529;SDS011;5313;48.834;9.228;2022-09-21T13:53:58;1.00;;;0.60;;
10529;SDS011;5313;48.834;9.228;2022-09-21T13:56:26;1.57;;;0.73;;
10529;SDS011;5313;48.834;9.228;2022-09-21T13:58:54;3.70;;;0.80;;
10529;SDS011;5313;48.834;9.228;2022-09-21T14:01:22;0.93;;;0.60;;
10529;SDS011;5313;48.834;9.228;2022-09-21T14:03:56;1.30;;;0.60;;
10529;SDS011;5313;48.834;9.228;2022-09-21T14:06:29;1.50;;;0.93;;
10529;SDS011;5313;48.834;9.228;2022-09-21T14:09:01;1.93;;;0.60;;
10529;SDS011;5313;48.834;9.228;2022-09-21T14:14:02;2.30;;;0.70;;
10529;SDS011;5313;48.834;9.228;2022-09-21T14:16:55;1.37;;;0.63;;
10529;SDS011;5313;48.834;9.228;2022-09-21T14:29:50;0.93;;;0.80;;
10529;SDS011;5313;48.834;9.228;2022-09-21T14:32:22;1.57;;;1.10;;
10529;SDS011;5313;48.834;9.228;2022-09-21T14:34:52;2.27;;;0.70;;
10529;SDS011;5313;48.834;9.228;2022-09-21T14:39:55;1.43;;;0.80;;
10529;SDS011;5313;48.834;9.228;2022-09-21T14:42:25;3.57;;;1.60;;
10529;SDS011;5313;48.834;9.228;2022-09-21T14:44:54;1.60;;;0.70;;
10529;SDS011;5313;48.834;9.228;2022-09-21T14:52:35;2.37;;;0.73;;
10529;SDS011;5313;48.834;9.228;2022-09-21T14:55:47;1.50;;;0.77;;
10529;SDS011;5313;48.834;9.228;2022-09-21T14:58:49;0.57;;;0.50;;
10529;SDS011;5313;48.834;9.228;2022-09-21T15:01:35;1.70;;;0.70;;
10529;SDS011;5313;48.834;9.228;2022-09-21T15:04:10;0.60;;;0.50;;
10529;SDS011;5313;48.834;9.228;2022-09-21T15:07:10;0.70;;;0.50;;
10529;SDS011;5313;48.834;9.228;2022-09-21T15:15:50;1.03;;;0.70;;
10529;SDS011;5313;48.834;9.228;2022-09-21T15:18:41;1.57;;;0.50;;
10529;SDS011;5313;48.834;9.228;2022-09-21T15:21:24;0.73;;;0.60;;
10529;SDS011;5313;48.834;9.228;2022-09-21T15:23:51;1.43;;;0.90;;
10529;SDS011;5313;48.834;9.228;2022-09-21T15:26:21;1.10;;;0.70;;
10529;SDS011;5313;48.834;9.228;2022-09-21T15:28:54;1.07;;;0.50;;
10529;SDS011;5313;48.834;9.228;2022-09-21T15:31:22;1.00;;;0.57;;
10529;SDS011;5313;48.834;9.228;2022-09-21T15:33:48;1.67;;;1.23;;
10529;SDS011;5313;48.834;9.228;2022-09-21T15:36:24;1.33;;;0.80;;
10529;SDS011;5313;48.834;9.228;2022-09-21T15:38:51;0.80;;;0.70;;
10529;SDS011;5313;48.834;9.228;2022-09-21T15:44:16;1.10;;;0.70;;
10529;SDS011;5313;48.834;9.228;2022-09-21T15:46:46;1.03;;;0.70;;
10529;SDS011;5313;48.834;9.228;2022-09-21T15:49:16;0.80;;;0.70;;
10529;SDS011;5313;48.834;9.228;2022-09-21T15:51:45;0.73;;;0.70;;
10529;SDS011;5313;48.834;9.228;2022-09-21T15:57:02;1.43;;;0.70;;
10529;SDS011;5313;48.834;9.228;2022-09-21T15:59:44;0.77;;;0.60;;
10529;SDS011;5313;48.834;9.228;2022-09-21T16:02:14;0.60;;;0.60;;
10529;SDS011;5313;48.834;9.228;2022-09-21T16:04:45;2.03;;;1.00;;
10529;SDS011;5313;48.834;9.228;2022-09-21T16:07:29;0.83;;;0.50;;
10529;SDS011;5313;48.834;9.228;2022-09-21T16:09:57;3.27;;;0.70;;
10529;SDS011;5313;48.834;9.228;2022-09-21T16:15:14;1.20;;;0.60;;
10529;SDS011;5313;48.834;9.228;2022-09-21T16:17:54;0.73;;;0.70;;
10529;SDS011;5313;48.834;9.228;2022-09-21T16:20:36;0.73;;;0.67;;
10529;SDS011;5313;48.834;9.228;2022-09-21T16:23:20;0.87;;;0.70;;
10529;SDS011;5313;48.834;9.228;2022-09-21T16:25:55;2.93;;;0.70;;
10529;SDS011;5313;48.834;9.228;2022-09-21T16:28:29;1.53;;;0.87;;
10529;SDS011;5313;48.834;9.228;2022-09-21T16:31:20;3.83;;;0.80;;
10529;SDS011;5313;48.834;9.228;2022-09-21T16:38:41;1.93;;;0.60;;
10529;SDS011;5313;48.834;9.228;2022-09-21T16:41:07;1.97;;;0.90;;
10529;SDS011;5313;48.834;9.228;2022-09-21T16:43:34;2.00;;;0.90;;
10529;SDS011;5313;48.834;9.228;2022-09-21T16:46:07;1.63;;;1.10;;
10529;SDS011;5313;48.834;9.228;2022-09-21T16:48:33;1.60;;;0.80;;
10529;SDS011;5313;48.834;9.228;2022-09-21T16:50:59;1.17;;;0.70;;
10529;SDS011;5313;48.834;9.228;2022-09-21T16:53:24;0.90;;;0.77;;
10529;SDS011;5313;48.834;9.228;2022-09-21T16:55:51;1.33;;;0.70;;
10529;SDS011;5313;48.834;9.228;2022-09-21T16:58:18;1.17;;;0.70;;
10529;SDS011;5313;48.834;9.228;2022-09-21T17:00:50;1.23;;;0.80;;
10529;SDS011;5313;48.834;9.228;2022-09-21T17:03:17;2.03;;;1.50;;
10529;SDS011;5313;48.834;9.228;2022-09-21T17:05:43;1.80;;;1.17;;
10529;SDS011;5313;48.834;9.228;2022-09-21T17:08:09;1.80;;;1.10;;
10529;SDS011;5313;48.834;9.228;2022-09-21T17:10:36;1.00;;;0.90;;
10529;SDS011;5313;48.834;9.228;2022-09-21T17:13:04;1.73;;;0.90;;
10529;SDS011;5313;48.834;9.228;2022-09-21T17:15:32;1.50;;;0.70;;
10529;SDS011;5313;48.834;9.228;2022-09-21T17:18:00;1.40;;;0.90;;
10529;SDS011;5313;48.834;9.228;2022-09-21T17:20:36;2.33;;;0.90;;
10529;SDS011;5313;48.834;9.228;2022-09-21T17:23:04;2.27;;;0.90;;
10529;SDS011;5313;48.834;9.228;2022-09-21T17:25:30;1.13;;;0.77;;
10529;SDS011;5313;48.834;9.228;2022-09-21T17:27:56;1.10;;;0.70;;
10529;SDS011;5313;48.834;9.228;2022-09-21T17:30:23;1.57;;;0.97;;
10529;SDS011;5313;48.834;9.228;2022-09-21T17:32:50;2.63;;;0.70;;
10529;SDS011;5313;48.834;9.228;2022-09-21T17:37:56;1.73;;;0.90;;
10529;SDS011;5313;48.834;9.228;2022-09-21T17:40:21;1.67;;;0.80;;
10529;SDS011;5313;48.834;9.228;2022-09-21T17:42:48;3.13;;;0.90;;
10529;SDS011;5313;48.834;9.228;2022-09-21T17:48:01;2.47;;;1.03;;
10529;SDS011;5313;48.834;9.228;2022-09-21T17:50:27;1.80;;;1.00;;
10529;SDS011;5313;48.834;9.228;2022-09-21T17:52:54;2.80;;;0.90;;
10529;SDS011;5313;48.834;9.228;2022-09-21T17:55:40;3.03;;;0.90;;
10529;SDS011;5313;48.834;9.228;2022-09-21T18:01:04;5.70;;;1.47;;
10529;SDS011;5313;48.834;9.228;2022-09-21T18:03:32;5.00;;;1.10;;
10529;SDS011;5313;48.834;9.228;2022-09-21T18:06:01;2.13;;;1.27;;
10529;SDS011;5313;48.834;9.228;2022-09-21T18:08:28;3.00;;;1.23;;
10529;SDS011;5313;48.834;9.228;2022-09-21T18:11:02;2.47;;;1.10;;
10529;SDS011;5313;48.834;9.228;2022-09-21T18:19:22;2.50;;;1.10;;
10529;SDS011;5313;48.834;9.228;2022-09-21T18:21:53;2.27;;;1.10;;
10529;SDS011;5313;48.834;9.228;2022-09-21T18:24:46;2.38;;;1.30;;
10529;SDS011;5313;48.834;9.228;2022-09-21T18:27:12;2.07;;;1.53;;
10529;SDS011;5313;48.834;9.228;2022-09-21T18:29:38;1.50;;;1.00;;
10529;SDS011;5313;48.834;9.228;2022-09-21T18:38:10;1.93;;;1.10;;
10529;SDS011;5313;48.834;9.228;2022-09-21T18:46:37;1.30;;;1.20;;
10529;SDS011;5313;48.834;9.228;2022-09-21T18:49:17;2.03;;;1.33;;